sensor_id;sensor_type;location;lat;lon;timestamp;P1;P2;P0
76304;PMS7003;65111;50.536;19.204;2023-02-13T00:01:30;36.00;26.00;18.00
76304;PMS7003;65111;50.536;19.204;2023-02-13T00:03:58;45.00;41.00;25.00
76304;PMS7003;65111;50.536;19.204;2023-02-13T00:06:24;45.50;36.00;22.00
76304;PMS7003;65111;50.536;19.204;2023-02-13T00:08:51;27.33;24.00;15.00
76304;PMS7003;65111;50.536;19.204;2023-02-13T00:11:17;39.33;34.33;19.00
76304;PMS7003;65111;50.536;19.204;2023-02-13T00:13:45;36.00;33.00;19.00
76304;PMS7003;65111;50.536;19.204;2023-02-13T00:16:11;37.00;30.00;16.00
76304;PMS7003;65111;50.536;19.204;2023-02-13T00:18:37;35.00;30.00;19.00
76304;PMS7003;65111;50.536;19.204;2023-02-13T00:21:05;40.00;37.00;24.00
76304;PMS7003;65111;50.536;19.204;2023-02-13T00:23:33;32.50;30.50;17.00
76304;PMS7003;65111;50.536;19.204;2023-02-13T00:26:03;44.00;39.00;25.00
76304;PMS7003;65111;50.536;19.204;2023-02-13T00:28:31;38.00;31.50;15.50
76304;PMS7003;65111;50.536;19.204;2023-02-13T00:31:01;39.50;34.00;23.00
76304;PMS7003;65111;50.536;19.204;2023-02-13T00:33:32;34.00;33.00;19.00
76304;PMS7003;65111;50.536;19.204;2023-02-13T00:36:18;34.00;28.00;16.00
76304;PMS7003;65111;50.536;19.204;2023-02-13T00:38:45;33.00;28.00;18.00
76304;PMS7003;65111;50.536;19.204;2023-02-13T00:41:12;33.00;31.00;18.50
76304;PMS7003;65111;50.536;19.204;2023-02-13T00:43:41;33.50;29.00;19.50
76304;PMS7003;65111;50.536;19.204;2023-02-13T00:46:07;37.00;37.00;21.00
76304;PMS7003;65111;50.536;19.204;2023-02-13T00:48:33;26.00;26.00;18.50
76304;PMS7003;65111;50.536;19.204;2023-02-13T00:51:00;37.00;30.00;16.00
76304;PMS7003;65111;50.536;19.204;2023-02-13T00:53:26;33.50;27.00;21.00
76304;PMS7003;65111;50.536;19.204;2023-02-13T00:55:53;40.50;36.50;19.00
76304;PMS7003;65111;50.536;19.204;2023-02-13T00:58:19;33.00;27.50;18.00
76304;PMS7003;65111;50.536;19.204;2023-02-13T01:00:46;29.33;25.67;16.00
76304;PMS7003;65111;50.536;19.204;2023-02-13T01:03:12;29.00;27.00;15.50
76304;PMS7003;65111;50.536;19.204;2023-02-13T01:05:40;24.50;21.50;14.00
76304;PMS7003;65111;50.536;19.204;2023-02-13T01:08:06;24.00;16.67;13.00
76304;PMS7003;65111;50.536;19.204;2023-02-13T01:10:33;33.00;31.00;19.00
76304;PMS7003;65111;50.536;19.204;2023-02-13T01:12:59;25.00;22.00;13.00
76304;PMS7003;65111;50.536;19.204;2023-02-13T01:15:25;23.67;21.67;9.67
76304;PMS7003;65111;50.536;19.204;2023-02-13T01:17:52;29.50;24.00;15.00
76304;PMS7003;65111;50.536;19.204;2023-02-13T01:20:19;23.00;20.50;15.00
76304;PMS7003;65111;50.536;19.204;2023-02-13T01:22:45;34.67;30.67;17.33
76304;PMS7003;65111;50.536;19.204;2023-02-13T01:25:11;26.00;24.50;12.00
76304;PMS7003;65111;50.536;19.204;2023-02-13T01:27:37;29.33;27.33;18.00
76304;PMS7003;65111;50.536;19.204;2023-02-13T01:30:04;18.67;15.33;10.00
76304;PMS7003;65111;50.536;19.204;2023-02-13T01:32:36;27.50;24.50;15.00
76304;PMS7003;65111;50.536;19.204;2023-02-13T01:35:03;23.00;20.33;13.00
76304;PMS7003;65111;50.536;19.204;2023-02-13T01:37:29;25.00;24.00;15.00
76304;PMS7003;65111;50.536;19.204;2023-02-13T01:39:55;27.00;19.00;10.00
76304;PMS7003;65111;50.536;19.204;2023-02-13T01:42:24;26.33;20.33;12.67
76304;PMS7003;65111;50.536;19.204;2023-02-13T01:44:56;27.00;24.00;15.50
76304;PMS7003;65111;50.536;19.204;2023-02-13T01:55:49;28.00;22.00;13.00
76304;PMS7003;65111;50.536;19.204;2023-02-13T01:58:20;21.00;18.00;11.33
76304;PMS7003;65111;50.536;19.204;2023-02-13T02:00:50;22.00;16.50;9.50
76304;PMS7003;65111;50.536;19.204;2023-02-13T02:03:23;23.00;21.00;12.00
76304;PMS7003;65111;50.536;19.204;2023-02-13T02:06:00;20.00;16.00;12.00
76304;PMS7003;65111;50.536;19.204;2023-02-13T02:08:27;25.00;21.50;13.00
76304;PMS7003;65111;50.536;19.204;2023-02-13T02:10:55;22.50;16.00;10.00
76304;PMS7003;65111;50.536;19.204;2023-02-13T02:13:24;19.50;16.50;12.50
76304;PMS7003;65111;50.536;19.204;2023-02-13T02:15:50;18.00;13.00;7.00
76304;PMS7003;65111;50.536;19.204;2023-02-13T02:18:21;25.50;21.50;13.00
76304;PMS7003;65111;50.536;19.204;2023-02-13T02:26:16;21.67;20.33;12.33
76304;PMS7003;65111;50.536;19.204;2023-02-13T02:29:51;19.00;17.00;12.00
76304;PMS7003;65111;50.536;19.204;2023-02-13T02:35:18;21.33;19.00;11.67
76304;PMS7003;65111;50.536;19.204;2023-02-13T02:43:38;25.00;18.00;12.00
76304;PMS7003;65111;50.536;19.204;2023-02-13T02:49:26;15.00;13.00;10.00
76304;PMS7003;65111;50.536;19.204;2023-02-13T02:57:31;12.00;9.00;4.00
76304;PMS7003;65111;50.536;19.204;2023-02-13T03:00:19;13.00;13.00;9.00
76304;PMS7003;65111;50.536;19.204;2023-02-13T03:03:26;15.00;15.00;8.00
76304;PMS7003;65111;50.536;19.204;2023-02-13T03:06:18;18.00;15.00;10.00
76304;PMS7003;65111;50.536;19.204;2023-02-13T03:08:53;12.00;10.00;7.00
76304;PMS7003;65111;50.536;19.204;2023-02-13T03:11:40;16.00;12.00;7.00
76304;PMS7003;65111;50.536;19.204;2023-02-13T03:14:27;10.67;9.33;6.33
76304;PMS7003;65111;50.536;19.204;2023-02-13T03:16:54;18.00;14.00;7.00
76304;PMS7003;65111;50.536;19.204;2023-02-13T03:31:43;15.00;12.00;7.00
76304;PMS7003;65111;50.536;19.204;2023-02-13T03:34:20;17.00;15.00;9.50
76304;PMS7003;65111;50.536;19.204;2023-02-13T03:42:25;15.67;10.00;4.00
76304;PMS7003;65111;50.536;19.204;2023-02-13T03:45:21;11.50;9.50;6.50
76304;PMS7003;65111;50.536;19.204;2023-02-13T03:48:17;15.00;12.00;8.00
76304;PMS7003;65111;50.536;19.204;2023-02-13T03:51:27;15.00;11.00;7.00
76304;PMS7003;65111;50.536;19.204;2023-02-13T03:53:59;12.00;9.00;7.00
76304;PMS7003;65111;50.536;19.204;2023-02-13T03:56:28;12.00;10.67;9.00
76304;PMS7003;65111;50.536;19.204;2023-02-13T03:59:28;9.00;9.00;6.00
76304;PMS7003;65111;50.536;19.204;2023-02-13T04:01:59;12.00;11.00;6.50
76304;PMS7003;65111;50.536;19.204;2023-02-13T04:07:14;15.00;13.00;7.00
76304;PMS7003;65111;50.536;19.204;2023-02-13T04:10:21;11.00;9.00;4.00
76304;PMS7003;65111;50.536;19.204;2023-02-13T04:12:59;15.00;10.00;7.00
76304;PMS7003;65111;50.536;19.204;2023-02-13T04:21:04;4.00;4.00;3.00
76304;PMS7003;65111;50.536;19.204;2023-02-13T04:23:31;7.33;6.67;3.00
76304;PMS7003;65111;50.536;19.204;2023-02-13T04:25:59;9.00;7.00;4.00
76304;PMS7003;65111;50.536;19.204;2023-02-13T04:28:28;9.50;6.50;6.00
76304;PMS7003;65111;50.536;19.204;2023-02-13T04:30:54;5.00;5.00;3.50
76304;PMS7003;65111;50.536;19.204;2023-02-13T04:33:21;6.00;6.00;4.00
76304;PMS7003;65111;50.536;19.204;2023-02-13T04:35:48;6.33;6.00;4.00
76304;PMS7003;65111;50.536;19.204;2023-02-13T04:38:14;8.33;8.33;4.00
76304;PMS7003;65111;50.536;19.204;2023-02-13T04:40:40;4.00;4.00;3.00
76304;PMS7003;65111;50.536;19.204;2023-02-13T04:43:06;8.00;7.00;6.00
76304;PMS7003;65111;50.536;19.204;2023-02-13T04:45:32;10.00;7.00;5.00
76304;PMS7003;65111;50.536;19.204;2023-02-13T04:47:58;6.00;6.00;4.00
76304;PMS7003;65111;50.536;19.204;2023-02-13T04:50:24;7.67;7.67;5.33
76304;PMS7003;65111;50.536;19.204;2023-02-13T04:52:54;10.00;6.00;3.00
76304;PMS7003;65111;50.536;19.204;2023-02-13T04:55:22;15.00;7.00;4.00
76304;PMS7003;65111;50.536;19.204;2023-02-13T04:57:50;7.00;6.00;4.00
76304;PMS7003;65111;50.536;19.204;2023-02-13T05:00:19;7.00;7.00;6.00
76304;PMS7003;65111;50.536;19.204;2023-02-13T05:02:46;11.33;7.00;5.33
76304;PMS7003;65111;50.536;19.204;2023-02-13T05:05:12;6.00;4.00;4.00
76304;PMS7003;65111;50.536;19.204;2023-02-13T05:07:39;6.00;4.00;3.00
76304;PMS7003;65111;50.536;19.204;2023-02-13T05:10:06;3.00;3.00;2.00
76304;PMS7003;65111;50.536;19.204;2023-02-13T05:12:33;9.50;6.00;3.00
76304;PMS7003;65111;50.536;19.204;2023-02-13T05:14:59;7.00;4.67;3.33
76304;PMS7003;65111;50.536;19.204;2023-02-13T05:17:25;9.00;7.00;4.00
76304;PMS7003;65111;50.536;19.204;2023-02-13T05:19:52;6.00;5.00;4.00
76304;PMS7003;65111;50.536;19.204;2023-02-13T05:22:18;6.33;6.00;3.67
76304;PMS7003;65111;50.536;19.204;2023-02-13T05:25:03;8.00;6.50;4.00
76304;PMS7003;65111;50.536;19.204;2023-02-13T05:27:29;7.67;6.00;3.00
76304;PMS7003;65111;50.536;19.204;2023-02-13T05:29:55;6.00;3.00;3.00
76304;PMS7003;65111;50.536;19.204;2023-02-13T05:32:21;6.33;4.00;3.00
76304;PMS7003;65111;50.536;19.204;2023-02-13T05:34:47;7.00;6.00;4.00
76304;PMS7003;65111;50.536;19.204;2023-02-13T05:37:13;7.00;4.00;3.50
76304;PMS7003;65111;50.536;19.204;2023-02-13T05:39:39;7.00;6.00;4.00
76304;PMS7003;65111;50.536;19.204;2023-02-13T05:42:05;7.00;4.67;3.00
76304;PMS7003;65111;50.536;19.204;2023-02-13T05:44:31;9.00;7.00;6.00
76304;PMS7003;65111;50.536;19.204;2023-02-13T05:46:57;12.00;9.00;4.00
76304;PMS7003;65111;50.536;19.204;2023-02-13T05:49:24;7.00;7.00;4.00
76304;PMS7003;65111;50.536;19.204;2023-02-13T05:51:50;6.00;6.00;3.67
76304;PMS7003;65111;50.536;19.204;2023-02-13T05:54:16;7.00;6.00;3.00
76304;PMS7003;65111;50.536;19.204;2023-02-13T05:56:43;5.00;5.00;3.00
76304;PMS7003;65111;50.536;19.204;2023-02-13T05:59:09;3.00;3.00;3.00
76304;PMS7003;65111;50.536;19.204;2023-02-13T06:01:35;5.00;3.50;0.50
76304;PMS7003;65111;50.536;19.204;2023-02-13T06:04:01;7.00;7.00;4.00
76304;PMS7003;65111;50.536;19.204;2023-02-13T06:06:27;3.00;3.00;3.00
76304;PMS7003;65111;50.536;19.204;2023-02-13T06:08:53;3.50;3.50;2.00
76304;PMS7003;65111;50.536;19.204;2023-02-13T06:11:19;6.00;3.00;3.00
76304;PMS7003;65111;50.536;19.204;2023-02-13T06:13:45;3.67;3.67;1.67
76304;PMS7003;65111;50.536;19.204;2023-02-13T06:16:11;4.00;3.50;2.00
76304;PMS7003;65111;50.536;19.204;2023-02-13T06:18:38;3.00;3.00;1.00
76304;PMS7003;65111;50.536;19.204;2023-02-13T06:21:04;3.67;3.67;3.00
76304;PMS7003;65111;50.536;19.204;2023-02-13T06:23:31;6.67;6.00;3.00
76304;PMS7003;65111;50.536;19.204;2023-02-13T06:26:04;6.00;6.00;3.00
76304;PMS7003;65111;50.536;19.204;2023-02-13T06:28:32;6.00;6.00;3.33
76304;PMS7003;65111;50.536;19.204;2023-02-13T06:30:58;7.00;5.00;3.50
76304;PMS7003;65111;50.536;19.204;2023-02-13T06:33:25;5.00;4.00;3.00
76304;PMS7003;65111;50.536;19.204;2023-02-13T06:35:51;6.00;6.00;4.00
76304;PMS7003;65111;50.536;19.204;2023-02-13T06:38:17;6.00;6.00;4.00
76304;PMS7003;65111;50.536;19.204;2023-02-13T06:40:47;3.50;3.50;1.00
76304;PMS7003;65111;50.536;19.204;2023-02-13T06:43:14;9.67;7.33;5.33
76304;PMS7003;65111;50.536;19.204;2023-02-13T06:45:40;3.50;3.00;1.00
76304;PMS7003;65111;50.536;19.204;2023-02-13T06:48:06;10.00;8.33;4.00
76304;PMS7003;65111;50.536;19.204;2023-02-13T06:50:33;0.00;0.00;0.00
76304;PMS7003;65111;50.536;19.204;2023-02-13T06:53:02;5.00;5.00;4.00
76304;PMS7003;65111;50.536;19.204;2023-02-13T06:55:28;12.00;6.00;4.00
76304;PMS7003;65111;50.536;19.204;2023-02-13T06:57:54;6.00;5.00;4.00
76304;PMS7003;65111;50.536;19.204;2023-02-13T07:00:20;9.00;8.00;4.00
76304;PMS7003;65111;50.536;19.204;2023-02-13T07:02:46;9.00;9.00;6.00
76304;PMS7003;65111;50.536;19.204;2023-02-13T07:05:12;7.00;6.00;4.00
76304;PMS7003;65111;50.536;19.204;2023-02-13T07:07:40;12.00;9.00;6.00
76304;PMS7003;65111;50.536;19.204;2023-02-13T07:10:09;10.50;8.00;6.00
76304;PMS7003;65111;50.536;19.204;2023-02-13T07:12:36;6.00;6.00;4.00
76304;PMS7003;65111;50.536;19.204;2023-02-13T07:15:03;6.00;6.00;4.00
76304;PMS7003;65111;50.536;19.204;2023-02-13T07:17:29;5.00;5.00;4.00
76304;PMS7003;65111;50.536;19.204;2023-02-13T07:19:56;7.67;7.67;5.33
76304;PMS7003;65111;50.536;19.204;2023-02-13T07:22:22;6.00;6.00;4.00
76304;PMS7003;65111;50.536;19.204;2023-02-13T07:24:48;4.00;3.00;1.00
76304;PMS7003;65111;50.536;19.204;2023-02-13T07:27:14;4.00;4.00;2.50
76304;PMS7003;65111;50.536;19.204;2023-02-13T07:29:41;10.00;7.00;4.00
76304;PMS7003;65111;50.536;19.204;2023-02-13T07:32:07;5.00;4.00;3.50
76304;PMS7003;65111;50.536;19.204;2023-02-13T07:34:33;6.00;4.00;3.00
76304;PMS7003;65111;50.536;19.204;2023-02-13T07:36:59;6.00;4.00;3.00
76304;PMS7003;65111;50.536;19.204;2023-02-13T07:39:25;3.00;3.00;1.00
76304;PMS7003;65111;50.536;19.204;2023-02-13T07:41:51;3.00;3.00;1.00
76304;PMS7003;65111;50.536;19.204;2023-02-13T07:44:18;6.00;4.00;2.33
76304;PMS7003;65111;50.536;19.204;2023-02-13T07:46:44;6.00;6.00;4.00
76304;PMS7003;65111;50.536;19.204;2023-02-13T07:49:10;10.00;6.00;3.00
76304;PMS7003;65111;50.536;19.204;2023-02-13T07:51:36;8.33;7.00;4.00
76304;PMS7003;65111;50.536;19.204;2023-02-13T07:54:02;10.00;9.50;7.00
76304;PMS7003;65111;50.536;19.204;2023-02-13T07:56:28;8.00;6.00;4.00
76304;PMS7003;65111;50.536;19.204;2023-02-13T07:58:54;5.33;4.00;3.00
76304;PMS7003;65111;50.536;19.204;2023-02-13T08:01:21;4.00;4.00;3.00
76304;PMS7003;65111;50.536;19.204;2023-02-13T08:03:48;7.00;4.00;3.00
76304;PMS7003;65111;50.536;19.204;2023-02-13T08:06:17;6.00;6.00;4.00
76304;PMS7003;65111;50.536;19.204;2023-02-13T08:08:44;9.00;7.00;5.33
76304;PMS7003;65111;50.536;19.204;2023-02-13T08:11:26;6.50;5.00;2.00
76304;PMS7003;65111;50.536;19.204;2023-02-13T08:14:14;7.00;4.00;4.00
76304;PMS7003;65111;50.536;19.204;2023-02-13T08:16:40;13.00;9.00;5.00
76304;PMS7003;65111;50.536;19.204;2023-02-13T08:19:06;4.00;4.00;3.00
76304;PMS7003;65111;50.536;19.204;2023-02-13T08:21:32;7.00;6.00;3.67
76304;PMS7003;65111;50.536;19.204;2023-02-13T08:23:59;12.00;4.00;3.00
76304;PMS7003;65111;50.536;19.204;2023-02-13T08:26:25;7.67;6.00;4.00
76304;PMS7003;65111;50.536;19.204;2023-02-13T08:28:52;7.00;7.00;5.00
76304;PMS7003;65111;50.536;19.204;2023-02-13T08:31:18;7.00;7.00;4.00
76304;PMS7003;65111;50.536;19.204;2023-02-13T08:33:44;8.00;6.50;5.00
76304;PMS7003;65111;50.536;19.204;2023-02-13T08:36:10;4.00;4.00;3.00
76304;PMS7003;65111;50.536;19.204;2023-02-13T08:38:36;8.00;8.00;5.00
76304;PMS7003;65111;50.536;19.204;2023-02-13T08:41:03;6.00;6.00;4.00
76304;PMS7003;65111;50.536;19.204;2023-02-13T08:43:29;6.50;6.50;4.00
76304;PMS7003;65111;50.536;19.204;2023-02-13T08:45:58;8.33;7.00;6.00
76304;PMS7003;65111;50.536;19.204;2023-02-13T08:48:25;9.00;6.00;4.00
76304;PMS7003;65111;50.536;19.204;2023-02-13T08:50:52;10.00;6.00;4.00
76304;PMS7003;65111;50.536;19.204;2023-02-13T08:53:18;0.00;0.00;0.00
76304;PMS7003;65111;50.536;19.204;2023-02-13T08:55:53;3.00;3.00;3.00
76304;PMS7003;65111;50.536;19.204;2023-02-13T08:58:21;3.00;3.00;2.00
76304;PMS7003;65111;50.536;19.204;2023-02-13T09:00:47;7.00;7.00;4.00
76304;PMS7003;65111;50.536;19.204;2023-02-13T09:03:14;7.50;5.50;4.00
76304;PMS7003;65111;50.536;19.204;2023-02-13T09:05:41;4.50;4.50;3.50
76304;PMS7003;65111;50.536;19.204;2023-02-13T09:08:07;8.00;8.00;4.00
76304;PMS7003;65111;50.536;19.204;2023-02-13T09:10:36;6.50;5.00;4.00
76304;PMS7003;65111;50.536;19.204;2023-02-13T09:13:03;3.33;3.33;2.33
76304;PMS7003;65111;50.536;19.204;2023-02-13T09:15:30;6.00;2.00;2.00
76304;PMS7003;65111;50.536;19.204;2023-02-13T09:17:58;4.00;4.00;2.00
76304;PMS7003;65111;50.536;19.204;2023-02-13T09:20:24;7.00;4.67;2.33
76304;PMS7003;65111;50.536;19.204;2023-02-13T09:22:50;7.50;4.00;2.00
76304;PMS7003;65111;50.536;19.204;2023-02-13T09:25:16;6.00;6.00;4.00
76304;PMS7003;65111;50.536;19.204;2023-02-13T09:27:44;4.33;4.33;2.67
76304;PMS7003;65111;50.536;19.204;2023-02-13T09:30:10;4.00;4.00;2.00
76304;PMS7003;65111;50.536;19.204;2023-02-13T09:32:42;5.00;4.00;4.00
76304;PMS7003;65111;50.536;19.204;2023-02-13T09:35:08;5.00;5.00;3.33
76304;PMS7003;65111;50.536;19.204;2023-02-13T09:37:35;7.00;7.00;4.50
76304;PMS7003;65111;50.536;19.204;2023-02-13T09:40:01;4.00;4.00;2.00
76304;PMS7003;65111;50.536;19.204;2023-02-13T09:42:28;5.00;4.00;2.00
76304;PMS7003;65111;50.536;19.204;2023-02-13T09:45:01;4.00;4.00;2.00
76304;PMS7003;65111;50.536;19.204;2023-02-13T09:47:33;6.50;4.00;2.00
76304;PMS7003;65111;50.536;19.204;2023-02-13T09:50:24;7.50;5.00;4.00
76304;PMS7003;65111;50.536;19.204;2023-02-13T09:52:56;10.00;6.33;3.00
76304;PMS7003;65111;50.536;19.204;2023-02-13T09:55:33;10.00;6.33;5.33
76304;PMS7003;65111;50.536;19.204;2023-02-13T09:58:08;11.00;9.33;5.67
76304;PMS7003;65111;50.536;19.204;2023-02-13T10:00:49;8.50;8.50;6.00
76304;PMS7003;65111;50.536;19.204;2023-02-13T10:03:26;8.50;7.50;5.00
76304;PMS7003;65111;50.536;19.204;2023-02-13T10:06:06;9.67;6.67;4.00
76304;PMS7003;65111;50.536;19.204;2023-02-13T10:11:26;4.67;4.00;2.33
76304;PMS7003;65111;50.536;19.204;2023-02-13T10:22:18;21.00;13.00;8.33
76304;PMS7003;65111;50.536;19.204;2023-02-13T10:24:51;11.00;9.00;7.00
76304;PMS7003;65111;50.536;19.204;2023-02-13T10:27:28;5.50;4.00;2.50
76304;PMS7003;65111;50.536;19.204;2023-02-13T10:30:22;5.50;5.50;4.00
76304;PMS7003;65111;50.536;19.204;2023-02-13T10:33:00;4.00;4.00;2.00
76304;PMS7003;65111;50.536;19.204;2023-02-13T10:35:45;6.00;4.00;2.50
76304;PMS7003;65111;50.536;19.204;2023-02-13T10:38:33;4.00;3.00;3.00
76304;PMS7003;65111;50.536;19.204;2023-02-13T10:43:51;1.00;1.00;1.00
76304;PMS7003;65111;50.536;19.204;2023-02-13T10:54:55;2.50;2.50;2.50
76304;PMS7003;65111;50.536;19.204;2023-02-13T11:03:30;6.33;2.33;2.33
76304;PMS7003;65111;50.536;19.204;2023-02-13T11:05:56;4.00;3.00;3.00
76304;PMS7003;65111;50.536;19.204;2023-02-13T11:25:16;5.00;4.00;2.00
76304;PMS7003;65111;50.536;19.204;2023-02-13T11:33:00;5.33;5.33;4.00
76304;PMS7003;65111;50.536;19.204;2023-02-13T11:35:35;4.00;3.50;1.00
76304;PMS7003;65111;50.536;19.204;2023-02-13T11:40:43;3.00;3.00;3.00
76304;PMS7003;65111;50.536;19.204;2023-02-13T11:43:16;6.00;4.00;3.00
76304;PMS7003;65111;50.536;19.204;2023-02-13T11:46:04;9.33;6.00;4.00
76304;PMS7003;65111;50.536;19.204;2023-02-13T11:48:32;9.00;6.00;4.00
76304;PMS7003;65111;50.536;19.204;2023-02-13T11:50:58;4.00;4.00;3.00
76304;PMS7003;65111;50.536;19.204;2023-02-13T11:53:26;4.00;4.00;3.00
76304;PMS7003;65111;50.536;19.204;2023-02-13T11:58:29;4.67;4.67;3.00
76304;PMS7003;65111;50.536;19.204;2023-02-13T12:03:59;4.00;3.00;2.00
76304;PMS7003;65111;50.536;19.204;2023-02-13T12:09:39;5.33;5.33;2.33
76304;PMS7003;65111;50.536;19.204;2023-02-13T12:12:09;5.33;3.33;2.33
76304;PMS7003;65111;50.536;19.204;2023-02-13T12:14:44;7.00;7.00;3.00
76304;PMS7003;65111;50.536;19.204;2023-02-13T12:17:19;4.00;4.00;4.00
76304;PMS7003;65111;50.536;19.204;2023-02-13T12:19:47;7.33;7.00;4.67
76304;PMS7003;65111;50.536;19.204;2023-02-13T12:24:45;8.33;7.00;5.00
76304;PMS7003;65111;50.536;19.204;2023-02-13T12:33:15;4.00;2.00;1.00
76304;PMS7003;65111;50.536;19.204;2023-02-13T12:39:16;3.00;3.00;3.00
76304;PMS7003;65111;50.536;19.204;2023-02-13T12:55:49;3.00;1.00;1.00
76304;PMS7003;65111;50.536;19.204;2023-02-13T13:07:09;3.00;3.00;1.67
76304;PMS7003;65111;50.536;19.204;2023-02-13T13:10:10;3.00;3.00;3.00
76304;PMS7003;65111;50.536;19.204;2023-02-13T13:12:50;4.00;4.00;3.00
76304;PMS7003;65111;50.536;19.204;2023-02-13T13:15:34;3.00;3.00;3.00
76304;PMS7003;65111;50.536;19.204;2023-02-13T13:18:10;4.67;3.00;3.00
76304;PMS7003;65111;50.536;19.204;2023-02-13T13:32:05;9.00;6.00;4.00
76304;PMS7003;65111;50.536;19.204;2023-02-13T13:34:33;6.50;6.00;4.00
76304;PMS7003;65111;50.536;19.204;2023-02-13T13:37:03;6.00;6.00;3.00
76304;PMS7003;65111;50.536;19.204;2023-02-13T13:39:46;6.00;4.00;3.00
76304;PMS7003;65111;50.536;19.204;2023-02-13T13:48:13;4.00;1.00;1.00
76304;PMS7003;65111;50.536;19.204;2023-02-13T13:50:45;1.00;1.00;0.00
76304;PMS7003;65111;50.536;19.204;2023-02-13T13:53:13;0.50;0.00;0.00
76304;PMS7003;65111;50.536;19.204;2023-02-13T13:58:23;2.00;2.00;1.00
76304;PMS7003;65111;50.536;19.204;2023-02-13T14:03:39;5.67;5.67;5.67
76304;PMS7003;65111;50.536;19.204;2023-02-13T14:06:09;10.00;9.00;7.00
76304;PMS7003;65111;50.536;19.204;2023-02-13T14:13:59;3.00;1.00;1.00
76304;PMS7003;65111;50.536;19.204;2023-02-13T14:16:41;3.00;3.00;2.33
76304;PMS7003;65111;50.536;19.204;2023-02-13T14:22:24;6.00;3.00;3.00
76304;PMS7003;65111;50.536;19.204;2023-02-13T14:27:24;3.00;3.00;3.00
76304;PMS7003;65111;50.536;19.204;2023-02-13T14:29:56;1.00;1.00;0.00
76304;PMS7003;65111;50.536;19.204;2023-02-13T14:32:33;7.00;6.67;4.00
76304;PMS7003;65111;50.536;19.204;2023-02-13T14:35:04;7.00;6.00;3.00
76304;PMS7003;65111;50.536;19.204;2023-02-13T14:37:51;4.67;4.67;3.00
76304;PMS7003;65111;50.536;19.204;2023-02-13T14:42:53;6.00;4.00;3.00
76304;PMS7003;65111;50.536;19.204;2023-02-13T14:45:29;4.00;4.00;1.00
76304;PMS7003;65111;50.536;19.204;2023-02-13T14:48:02;3.00;3.00;1.00
76304;PMS7003;65111;50.536;19.204;2023-02-13T14:53:23;4.00;4.00;3.00
76304;PMS7003;65111;50.536;19.204;2023-02-13T14:56:14;8.50;3.50;1.00
76304;PMS7003;65111;50.536;19.204;2023-02-13T14:58:46;7.00;6.00;3.00
76304;PMS7003;65111;50.536;19.204;2023-02-13T15:04:25;6.00;3.00;1.00
76304;PMS7003;65111;50.536;19.204;2023-02-13T15:07:18;4.00;4.00;3.00
76304;PMS7003;65111;50.536;19.204;2023-02-13T15:09:49;4.00;4.00;3.00
76304;PMS7003;65111;50.536;19.204;2023-02-13T15:15:22;4.00;4.00;3.00
76304;PMS7003;65111;50.536;19.204;2023-02-13T15:17:51;4.00;4.00;3.00
76304;PMS7003;65111;50.536;19.204;2023-02-13T15:20:22;4.67;4.67;3.67
76304;PMS7003;65111;50.536;19.204;2023-02-13T15:22:52;3.00;3.00;1.00
76304;PMS7003;65111;50.536;19.204;2023-02-13T15:25:51;3.50;3.50;3.00
76304;PMS7003;65111;50.536;19.204;2023-02-13T15:28:17;4.00;4.00;3.00
76304;PMS7003;65111;50.536;19.204;2023-02-13T15:30:55;9.00;6.00;3.00
76304;PMS7003;65111;50.536;19.204;2023-02-13T15:33:24;6.50;5.00;3.50
76304;PMS7003;65111;50.536;19.204;2023-02-13T15:35:56;5.33;5.33;3.00
76304;PMS7003;65111;50.536;19.204;2023-02-13T15:38:28;3.00;3.00;3.00
76304;PMS7003;65111;50.536;19.204;2023-02-13T15:41:03;6.00;6.00;3.00
76304;PMS7003;65111;50.536;19.204;2023-02-13T15:43:34;3.00;3.00;-1.00
76304;PMS7003;65111;50.536;19.204;2023-02-13T15:46:46;6.00;6.00;3.33
76304;PMS7003;65111;50.536;19.204;2023-02-13T15:49:21;3.50;3.50;3.00
76304;PMS7003;65111;50.536;19.204;2023-02-13T15:51:48;5.33;4.00;3.00
76304;PMS7003;65111;50.536;19.204;2023-02-13T15:54:28;6.00;5.33;3.67
76304;PMS7003;65111;50.536;19.204;2023-02-13T15:56:56;10.00;7.00;6.67
76304;PMS7003;65111;50.536;19.204;2023-02-13T15:59:26;10.00;7.00;3.00
76304;PMS7003;65111;50.536;19.204;2023-02-13T16:01:56;12.00;12.00;7.00
76304;PMS7003;65111;50.536;19.204;2023-02-13T16:04:24;13.00;11.33;6.33
76304;PMS7003;65111;50.536;19.204;2023-02-13T16:06:52;11.00;8.50;5.00
76304;PMS7003;65111;50.536;19.204;2023-02-13T16:09:29;4.00;4.00;4.00
76304;PMS7003;65111;50.536;19.204;2023-02-13T16:14:58;7.00;7.00;4.00
76304;PMS7003;65111;50.536;19.204;2023-02-13T16:17:31;4.00;3.00;3.00
76304;PMS7003;65111;50.536;19.204;2023-02-13T16:20:00;6.33;6.00;3.00
76304;PMS7003;65111;50.536;19.204;2023-02-13T16:27:51;6.67;6.33;3.67
76304;PMS7003;65111;50.536;19.204;2023-02-13T16:30:22;6.33;3.33;3.00
76304;PMS7003;65111;50.536;19.204;2023-02-13T16:33:10;8.00;5.00;3.50
76304;PMS7003;65111;50.536;19.204;2023-02-13T16:35:56;6.33;3.67;3.00
76304;PMS7003;65111;50.536;19.204;2023-02-13T16:38:32;6.00;6.00;3.50
76304;PMS7003;65111;50.536;19.204;2023-02-13T16:41:27;10.00;6.33;4.00
76304;PMS7003;65111;50.536;19.204;2023-02-13T16:43:58;14.00;10.00;7.00
76304;PMS7003;65111;50.536;19.204;2023-02-13T16:51:43;1.00;1.00;0.00
76304;PMS7003;65111;50.536;19.204;2023-02-13T16:56:38;6.00;6.00;3.00
76304;PMS7003;65111;50.536;19.204;2023-02-13T17:07:43;7.00;7.00;4.00
76304;PMS7003;65111;50.536;19.204;2023-02-13T17:10:22;12.00;9.00;4.00
76304;PMS7003;65111;50.536;19.204;2023-02-13T17:12:51;11.00;6.00;5.00
76304;PMS7003;65111;50.536;19.204;2023-02-13T17:15:21;4.00;4.00;3.50
76304;PMS7003;65111;50.536;19.204;2023-02-13T17:17:48;7.00;7.00;4.00
76304;PMS7003;65111;50.536;19.204;2023-02-13T17:20:16;8.50;8.00;4.00
76304;PMS7003;65111;50.536;19.204;2023-02-13T17:22:51;6.00;5.00;3.50
76304;PMS7003;65111;50.536;19.204;2023-02-13T17:25:20;5.33;4.00;3.00
76304;PMS7003;65111;50.536;19.204;2023-02-13T17:27:51;2.00;2.00;1.00
76304;PMS7003;65111;50.536;19.204;2023-02-13T17:30:20;7.00;7.00;4.00
76304;PMS7003;65111;50.536;19.204;2023-02-13T17:36:00;3.00;3.00;3.00
76304;PMS7003;65111;50.536;19.204;2023-02-13T17:38:25;9.00;7.00;5.00
76304;PMS7003;65111;50.536;19.204;2023-02-13T17:40:52;8.00;6.67;4.67
76304;PMS7003;65111;50.536;19.204;2023-02-13T17:43:18;10.00;9.00;6.00
76304;PMS7003;65111;50.536;19.204;2023-02-13T17:45:45;9.33;9.00;6.00
76304;PMS7003;65111;50.536;19.204;2023-02-13T17:48:11;9.00;7.00;6.00
76304;PMS7003;65111;50.536;19.204;2023-02-13T17:50:38;5.00;5.00;4.00
76304;PMS7003;65111;50.536;19.204;2023-02-13T17:53:05;3.00;3.00;1.00
76304;PMS7003;65111;50.536;19.204;2023-02-13T17:55:33;9.00;6.00;4.00
76304;PMS7003;65111;50.536;19.204;2023-02-13T17:58:00;15.00;13.00;9.00
76304;PMS7003;65111;50.536;19.204;2023-02-13T18:00:28;12.00;12.00;6.00
76304;PMS7003;65111;50.536;19.204;2023-02-13T18:02:56;13.00;12.33;7.67
76304;PMS7003;65111;50.536;19.204;2023-02-13T18:05:23;8.00;7.00;4.00
76304;PMS7003;65111;50.536;19.204;2023-02-13T18:07:49;9.50;8.00;6.00
76304;PMS7003;65111;50.536;19.204;2023-02-13T18:10:17;7.67;6.00;4.00